地図

経路データ

SID SEASON NUMBER BASIN SUBBASIN NAME ISO_TIME NATURE LAT LON WMO_WIND WMO_PRES WMO_AGENCY TRACK_TYPE DIST2LAND LANDFALL IFLAG USA_AGENCY USA_ATCF_ID USA_LAT USA_LON USA_RECORD USA_STATUS USA_WIND USA_PRES USA_SSHS USA_R34_NE USA_R34_SE USA_R34_SW USA_R34_NW USA_R50_NE USA_R50_SE USA_R50_SW USA_R50_NW USA_R64_NE USA_R64_SE USA_R64_SW USA_R64_NW USA_POCI USA_ROCI USA_RMW USA_EYE TOKYO_LAT TOKYO_LON TOKYO_GRADE TOKYO_WIND TOKYO_PRES TOKYO_R50_DIR TOKYO_R50_LONG TOKYO_R50_SHORT TOKYO_R30_DIR TOKYO_R30_LONG TOKYO_R30_SHORT TOKYO_LAND CMA_LAT CMA_LON CMA_CAT CMA_WIND CMA_PRES HKO_LAT HKO_LON HKO_CAT HKO_WIND HKO_PRES NEWDELHI_LAT NEWDELHI_LON NEWDELHI_GRADE NEWDELHI_WIND NEWDELHI_PRES NEWDELHI_CI NEWDELHI_DP NEWDELHI_POCI REUNION_LAT REUNION_LON REUNION_TYPE REUNION_WIND REUNION_PRES REUNION_TNUM REUNION_CI REUNION_RMW REUNION_R34_NE REUNION_R34_SE REUNION_R34_SW REUNION_R34_NW REUNION_R50_NE REUNION_R50_SE REUNION_R50_SW REUNION_R50_NW REUNION_R64_NE REUNION_R64_SE REUNION_R64_SW REUNION_R64_NW BOM_LAT BOM_LON BOM_TYPE BOM_WIND BOM_PRES BOM_TNUM BOM_CI BOM_RMW BOM_R34_NE BOM_R34_SE BOM_R34_SW BOM_R34_NW BOM_R50_NE BOM_R50_SE BOM_R50_SW BOM_R50_NW BOM_R64_NE BOM_R64_SE BOM_R64_SW BOM_R64_NW BOM_ROCI BOM_POCI BOM_EYE BOM_POS_METHOD BOM_PRES_METHOD NADI_LAT NADI_LON NADI_CAT NADI_WIND NADI_PRES WELLINGTON_LAT WELLINGTON_LON WELLINGTON_WIND WELLINGTON_PRES DS824_LAT DS824_LON DS824_STAGE DS824_WIND DS824_PRES TD9636_LAT TD9636_LON TD9636_STAGE TD9636_WIND TD9636_PRES TD9635_LAT TD9635_LON TD9635_WIND TD9635_PRES TD9635_ROCI NEUMANN_LAT NEUMANN_LON NEUMANN_CLASS NEUMANN_WIND NEUMANN_PRES MLC_LAT MLC_LON MLC_CLASS MLC_WIND MLC_PRES USA_GUST BOM_GUST BOM_GUST_PER REUNION_GUST REUNION_GUST_PER USA_SEAHGT USA_SEARAD_NE USA_SEARAD_SE USA_SEARAD_SW USA_SEARAD_NW STORM_SPEED STORM_DIR
1950255S16163 1951 78 SP MM NOT_NAMED 1950-09-12 00:00:00 TS -15.9000 162.900 main 400 380 O________OO___ jtwc_sh SH021951 -15.9000 162.900 -1 -15.9000 162.900 TC -15.9000 162.900 2 12 153
1950255S16163 1951 78 SP MM NOT_NAMED 1950-09-12 03:00:00 TS -16.4516 163.197 main 383 363 P________PP___ SH021951 -16.4601 163.190 -1 -16.4601 163.190 TC -16.4347 163.213 2 12 152
1950255S16163 1951 78 SP MM NOT_NAMED 1950-09-12 06:00:00 TS -16.9885 163.510 main 363 303 O________OP___ jtwc_sh SH021951 -17.0000 163.500 -1 -17.0000 163.500 TC -16.9654 163.531 2 12 149
1950255S16163 1951 78 SP MM NOT_NAMED 1950-09-12 09:00:00 TS -17.5011 163.848 main 303 246 P________PP___ SH021951 -17.5075 163.843 -1 -17.5075 163.843 TC -17.4884 163.859 2 12 147
1950255S16163 1951 78 SP MM NOT_NAMED 1950-09-12 12:00:00 TS -18.0000 164.200 main 246 194 O________OO___ jtwc_sh SH021951 -18.0000 164.200 -1 -18.0000 164.200 TC -18.0000 164.200 2 12 146
1950255S16163 1951 78 SP MM NOT_NAMED 1950-09-12 15:00:00 TS -18.5040 164.548 main 194 151 P________PP___ SH021951 -18.5074 164.543 -1 -18.5074 164.543 TC -18.4973 164.557 2 12 146
1950255S16163 1951 78 SP MM NOT_NAMED 1950-09-12 18:00:00 TS -18.9932 164.909 main 151 124 O________OP___ jtwc_sh SH021951 -19.0000 164.900 -1 -19.0000 164.900 TC -18.9797 164.928 2 12 143
1950255S16163 1951 78 SP MM NOT_NAMED 1950-09-12 21:00:00 TS -19.4541 165.299 main 122 113 P________PP___ SH021951 -19.4575 165.293 -1 -19.4575 165.293 TC -19.4473 165.310 2 12 141
1950255S16163 1951 78 SP MM NOT_NAMED 1950-09-13 00:00:00 TS -19.9000 165.700 main 113 99 O________OO___ jtwc_sh SH021951 -19.9000 165.700 -1 -19.9000 165.700 TC -19.9000 165.700 2 12 140
1950255S16163 1951 78 SP MM NOT_NAMED 1950-09-13 03:00:00 TS -20.3552 166.089 main 99 88 P________PP___ SH021951 -20.3574 166.100 -1 -20.3574 166.100 TC -20.3508 166.065 2 12 141
1950255S16163 1951 78 SP MM NOT_NAMED 1950-09-13 06:00:00 TS -20.7955 166.480 main 88 69 O________OP___ jtwc_sh SH021951 -20.8000 166.500 -1 -20.8000 166.500 TC -20.7864 166.441 2 11 140
1950255S16163 1951 78 SP MM NOT_NAMED 1950-09-13 09:00:00 TS -21.2111 166.868 main 76 63 P________PP___ SH021951 -21.2147 166.878 -1 -21.2147 166.878 TC -21.2038 166.847 2 11 136
1950255S16163 1951 78 SP MM NOT_NAMED 1950-09-13 12:00:00 TS -21.6000 167.300 main 69 68 O________OO___ jtwc_sh SH021951 -21.6000 167.300 -1 -21.6000 167.300 TC -21.6000 167.300 2 12 130
1950255S16163 1951 78 SP MM NOT_NAMED 1950-09-13 15:00:00 TS -21.9540 167.818 main 85 85 P________PP___ SH021951 -21.9574 167.820 -1 -21.9574 167.820 TC -21.9471 167.814 2 12 124
1950255S16163 1951 78 SP MM NOT_NAMED 1950-09-13 18:00:00 TS -22.2924 168.393 main 143 143 O________OP___ jtwc_sh SH021951 -22.3000 168.400 -1 -22.3000 168.400 TC -22.2772 168.378 2 13 122
1950255S16163 1951 78 SP MM NOT_NAMED 1950-09-13 21:00:00 TS -22.6244 168.983 main 208 208 P________PP___ SH021951 -22.6273 168.986 -1 -22.6273 168.986 TC -22.6187 168.977 2 13 122
1950255S16163 1951 78 SP MM NOT_NAMED 1950-09-14 00:00:00 TS -23.0000 169.600 main 277 277 O________OO___ jtwc_sh SH021951 -23.0000 169.600 -1 -23.0000 169.600 TC -23.0000 169.600 2 14 126
1950255S16163 1951 78 SP MM NOT_NAMED 1950-09-14 03:00:00 TS -23.4702 170.233 main 354 354 P________PP___ SH021951 -23.4773 170.243 -1 -23.4773 170.243 TC -23.4561 170.213 2 15 130
1950255S16163 1951 78 SP MM NOT_NAMED 1950-09-14 06:00:00 TS -23.9846 170.883 main 441 441 O________OP___ jtwc_sh SH021951 -24.0000 170.900 -1 -24.0000 170.900 TC -23.9538 170.849 2 16 131
1950255S16163 1951 78 SP MM NOT_NAMED 1950-09-14 09:00:00 TS -24.4913 171.532 main 520 520 P________PP___ SH021951 -24.4996 171.543 -1 -24.4996 171.543 TC -24.4746 171.510 2 16 130
1950255S16163 1951 78 SP MM NOT_NAMED 1950-09-14 12:00:00 TS -25.0000 172.200 main 609 609 O________OO___ jtwc_sh SH021951 -25.0000 172.200 -1 -25.0000 172.200 TC -25.0000 172.200 2 16 129
1950255S16163 1951 78 SP MM NOT_NAMED 1950-09-14 15:00:00 TS -25.4994 172.888 main 697 697 P________PP___ SH021951 -25.4996 172.878 -1 -25.4996 172.878 TC -25.4990 172.907 2 16 128
1950255S16163 1951 78 SP MM NOT_NAMED 1950-09-14 18:00:00 TS -25.9995 173.614 main 786 786 O________OP___ jtwc_sh SH021951 -26.0000 173.600 -1 -26.0000 173.600 TC -25.9984 173.643 2 17 126
1950255S16163 1951 78 SP MM NOT_NAMED 1950-09-14 21:00:00 TS -26.4994 174.393 main 883 862 P________PP___ SH021951 -26.4998 174.386 -1 -26.4998 174.386 TC -26.4987 174.407 2 17 125
1950255S16163 1951 78 SP MM NOT_NAMED 1950-09-15 00:00:00 TS -27.0000 175.200 main 862 828 O________OO___ jtwc_sh SH021951 -27.0000 175.200 -1 -27.0000 175.200 TC -27.0000 175.200 2 17 125
1950255S16163 1951 78 SP MM NOT_NAMED 1950-09-15 03:00:00 TS -27.4976 175.992 main 831 809 P________PP___ SH021951 -27.4993 175.986 -1 -27.4993 175.986 TC -27.4944 176.004 2 17 125
1950255S16163 1951 78 SP MM NOT_NAMED 1950-09-15 06:00:00 TS -27.9967 176.812 main 809 797 O________OP___ jtwc_sh SH021951 -28.0000 176.800 -1 -28.0000 176.800 TC -27.9901 176.837 2 18 124
1950255S16163 1951 78 SP MM NOT_NAMED 1950-09-15 09:00:00 TS -28.4966 177.686 main 803 799 P________PP___ SH021951 -28.4995 177.678 -1 -28.4995 177.678 TC -28.4908 177.701 2 19 123
1950255S16163 1951 78 SP MM NOT_NAMED 1950-09-15 12:00:00 TS -29.0000 178.600 main 806 801 O________OO___ jtwc_sh SH021951 -29.0000 178.600 -1 -29.0000 178.600 TC -29.0000 178.600 2 19 122
1950255S16163 1951 78 SP MM NOT_NAMED 1950-09-15 15:00:00 TS -29.5057 179.540 main 809 806 P________PP___ SH021951 -29.4918 179.536 -1 -29.4918 179.536 TC -29.5335 179.547 2 20 122
1950255S16163 1951 78 SP MM NOT_NAMED 1950-09-15 18:00:00 TS -30.0240 180.509 main 827 825 O________OP___ jtwc_sh SH021951 -30.0000 -179.500 -1 -30.0000 180.500 TC -30.0719 -179.472 2 20 122
1950255S16163 1951 78 SP MM NOT_NAMED 1950-09-15 21:00:00 TS -30.5712 181.512 main 833 813 P________PP___ SH021951 -30.5572 -178.492 -1 -30.5572 -178.492 TC -30.5991 -178.480 2 20 122
1950255S16163 1951 78 SP MM NOT_NAMED 1950-09-16 00:00:00 TS -31.1000 182.500 main 817 808 O________OO___ jtwc_sh SH021951 -31.1000 -177.500 -1 -31.1000 182.500 TC -31.1000 -177.500 2 19 121
1950255S16163 1951 78 SP MM NOT_NAMED 1950-09-16 03:00:00 TS -31.5686 183.419 main 808 808 P________PP___ SH021951 -31.5714 -176.591 -1 -31.5714 -176.591 TC -31.5631 -176.561 2 18 120
1950255S16163 1951 78 SP MM NOT_NAMED 1950-09-16 06:00:00 TS -31.9996 184.321 main 819 819 O________OP___ jtwc_sh SH021951 -32.0000 -175.700 -1 -32.0000 184.300 TC -31.9987 -175.638 2 18 118
1950255S16163 1951 78 SP MM NOT_NAMED 1950-09-16 09:00:00 TS -32.4130 185.255 main 847 846 P________PP___ SH021951 -32.4144 -174.757 -1 -32.4144 -174.757 TC -32.4100 -174.721 2 18 117
1950255S16163 1951 78 SP MM NOT_NAMED 1950-09-16 12:00:00 TS -32.8000 186.200 main 878 878 O________OO___ jtwc_sh SH021951 -32.8000 -173.800 -1 -32.8000 186.200 TC -32.8000 -173.800 2 18 115
1950255S16163 1951 78 SP MM NOT_NAMED 1950-09-16 15:00:00 TS -33.1616 187.145 main 916 916 P________PP___ SH021951 -33.1568 -172.849 -1 -33.1568 -172.849 TC -33.1712 -172.867 2 17 114
1950255S16163 1951 78 SP MM NOT_NAMED 1950-09-16 18:00:00 TS -33.5088 188.093 main 975 975 O________OP___ jtwc_sh SH021951 -33.5000 -171.900 -1 -33.5000 188.100 TC -33.5265 -171.921 2 17 114
1950255S16163 1951 78 SP MM NOT_NAMED 1950-09-16 21:00:00 TS -33.8555 189.044 main 1026 1026 P________PP___ SH021951 -33.8490 -170.952 -1 -33.8490 -170.952 TC -33.8685 -170.965 2 17 114
1950255S16163 1951 78 SP MM NOT_NAMED 1950-09-17 00:00:00 TS -34.2000 190.000 main 1094 O________OO___ jtwc_sh SH021951 -34.2000 -170.000 -1 -34.2000 190.000 TC -34.2000 -170.000 2 17 114

デジタル台風データ・検索

IBTrACS Databaseについて

本データベースは、米国NOAAが公開する1842年以降の世界の熱帯低気圧のベストトラックデータアーカイブInternational Best Track Archive for Climate Stewardship (IBTrACS)を、ウェブで閲覧しやすい形式に変換したものです。

最終更新日:2021-10-21